Time;durP1;ratioP1;P1;durP2;ratioP2;P2;SDS_P1;SDS_P2;PMS_P1;PMS_P2;Temp;Humidity;BMP_temperature;BMP_pressure;BME280_temperature;BME280_humidity;BME280_pressure;Samples;Min_cycle;Max_cycle;Signal;HPM_P1;HPM_P2
2021/07/05 00:02:14;;;;;;;6.55;5.10;;;;;;;;;;5080077;28;20044;-85
2021/07/05 00:04:40;;;;;;;6.28;5.20;;;;;;;;;;5079955;28;20032;-85
2021/07/05 00:07:06;;;;;;;9.38;5.50;;;;;;;;;;5079093;28;20032;-85
2021/07/05 00:09:34;;;;;;;11.18;6.30;;;;;;;;;;5080097;28;20062;-85
2021/07/05 00:12:00;;;;;;;13.82;6.30;;;;;;;;;;5078959;28;20169;-84
2021/07/05 00:14:26;;;;;;;11.73;6.43;;;;;;;;;;5079907;28;20028;-86
2021/07/05 00:16:52;;;;;;;10.55;6.20;;;;;;;;;;5078770;28;20078;-85
2021/07/05 00:19:18;;;;;;;10.73;5.88;;;;;;;;;;5080053;28;20024;-86
2021/07/05 00:21:44;;;;;;;9.85;6.03;;;;;;;;;;5080046;28;20028;-86
2021/07/05 00:24:10;;;;;;;13.50;5.55;;;;;;;;;;5079734;28;20031;-85
2021/07/05 00:26:36;;;;;;;9.90;5.55;;;;;;;;;;5080044;28;20099;-85
2021/07/05 00:29:02;;;;;;;8.98;6.45;;;;;;;;;;5079600;28;20070;-85
2021/07/05 00:31:28;;;;;;;12.73;5.80;;;;;;;;;;5078226;28;20036;-86
2021/07/05 00:33:54;;;;;;;12.63;5.80;;;;;;;;;;5078656;28;20036;-86
2021/07/05 00:36:20;;;;;;;9.13;6.10;;;;;;;;;;5078668;28;20451;-85
2021/07/05 00:38:47;;;;;;;13.40;7.00;;;;;;;;;;5079373;28;20016;-85
2021/07/05 00:41:13;;;;;;;9.88;6.50;;;;;;;;;;5079699;28;20025;-85
2021/07/05 00:43:39;;;;;;;9.30;6.10;;;;;;;;;;5079088;28;20025;-85
2021/07/05 00:46:05;;;;;;;11.32;6.57;;;;;;;;;;5079195;28;20016;-85
2021/07/05 00:48:31;;;;;;;11.32;6.82;;;;;;;;;;5079096;28;20060;-87
2021/07/05 00:50:57;;;;;;;13.95;6.82;;;;;;;;;;5079295;28;20421;-88
2021/07/05 00:54:00;;;;;;;12.00;6.35;;;;;;;;;;5079427;28;20021;-88
2021/07/05 00:56:26;;;;;;;14.15;6.80;;;;;;;;;;5078289;28;20029;-88
2021/07/05 00:58:53;;;;;;;10.90;6.45;;;;;;;;;;5079104;28;20410;-87
2021/07/05 01:01:20;;;;;;;10.05;6.32;;;;;;;;;;5078415;28;20024;-87
2021/07/05 01:03:46;;;;;;;11.80;6.30;;;;;;;;;;5078270;28;20031;-87
2021/07/05 01:06:12;;;;;;;11.90;6.43;;;;;;;;;;5079436;28;20082;-87
2021/07/05 01:08:41;;;;;;;9.18;6.75;;;;;;;;;;5079628;28;20032;-88
2021/07/05 01:11:07;;;;;;;8.57;6.18;;;;;;;;;;5078770;28;20025;-87
2021/07/05 01:13:33;;;;;;;10.18;6.47;;;;;;;;;;5079124;28;20020;-86
2021/07/05 01:15:59;;;;;;;8.80;6.32;;;;;;;;;;5079218;28;20032;-87
2021/07/05 01:18:26;;;;;;;12.40;6.60;;;;;;;;;;5078698;28;20036;-87
2021/07/05 01:20:52;;;;;;;13.27;6.88;;;;;;;;;;5077902;28;20052;-87
2021/07/05 01:23:18;;;;;;;12.02;6.78;;;;;;;;;;5078988;28;20024;-87
2021/07/05 01:25:44;;;;;;;11.90;6.68;;;;;;;;;;5078780;28;20024;-87
2021/07/05 01:28:11;;;;;;;8.15;6.47;;;;;;;;;;5078938;28;20020;-87
2021/07/05 01:30:37;;;;;;;9.35;6.25;;;;;;;;;;5077700;28;20032;-87
2021/07/05 01:33:07;;;;;;;11.40;6.55;;;;;;;;;;5078816;28;20093;-87
2021/07/05 01:35:33;;;;;;;11.23;6.57;;;;;;;;;;5078386;28;20094;-85
2021/07/05 01:38:00;;;;;;;9.07;6.93;;;;;;;;;;5078613;28;20062;-86
2021/07/05 01:40:27;;;;;;;9.10;6.88;;;;;;;;;;5078437;28;20052;-85
2021/07/05 01:42:55;;;;;;;14.40;6.32;;;;;;;;;;5077645;28;20020;-86
2021/07/05 01:45:23;;;;;;;10.55;6.38;;;;;;;;;;5078262;28;20028;-85
2021/07/05 01:47:49;;;;;;;11.02;6.70;;;;;;;;;;5078068;28;20438;-86
2021/07/05 01:50:16;;;;;;;15.98;7.63;;;;;;;;;;5077288;28;20028;-86
2021/07/05 01:52:42;;;;;;;10.77;7.70;;;;;;;;;;5078456;28;20070;-87
2021/07/05 01:58:11;;;;;;;11.90;7.78;;;;;;;;;;5078146;28;20071;-87
2021/07/05 02:00:40;;;;;;;14.80;8.13;;;;;;;;;;5078129;28;20032;-88
2021/07/05 02:03:07;;;;;;;17.95;7.90;;;;;;;;;;5078225;28;20095;-87
2021/07/05 02:05:33;;;;;;;11.15;8.32;;;;;;;;;;5078286;28;20095;-86
2021/07/05 02:07:59;;;;;;;11.30;7.32;;;;;;;;;;5076854;28;20036;-85
2021/07/05 02:11:03;;;;;;;10.98;7.63;;;;;;;;;;5076898;28;20051;-85
2021/07/05 02:13:32;;;;;;;17.63;7.70;;;;;;;;;;5077754;28;20028;-86
2021/07/05 02:15:59;;;;;;;13.35;8.10;;;;;;;;;;5076867;28;20032;-86
2021/07/05 02:18:27;;;;;;;11.77;7.95;;;;;;;;;;5076558;28;20128;-84
2021/07/05 02:20:54;;;;;;;10.88;8.52;;;;;;;;;;5077864;28;20016;-85
2021/07/05 02:23:21;;;;;;;14.02;8.63;;;;;;;;;;5077660;28;20037;-84
2021/07/05 02:25:48;;;;;;;14.50;9.07;;;;;;;;;;5077403;28;20021;-85
2021/07/05 02:28:16;;;;;;;17.60;8.48;;;;;;;;;;5077511;28;20031;-85
2021/07/05 02:30:43;;;;;;;14.77;8.05;;;;;;;;;;5077950;28;20048;-87
2021/07/05 02:33:12;;;;;;;13.85;8.43;;;;;;;;;;5077825;28;20036;-87
2021/07/05 02:35:38;;;;;;;13.63;8.10;;;;;;;;;;5076584;28;20127;-87
2021/07/05 02:38:05;;;;;;;21.83;7.97;;;;;;;;;;5077473;28;20032;-87
2021/07/05 02:40:33;;;;;;;16.00;8.23;;;;;;;;;;5077585;28;20031;-86
2021/07/05 02:42:59;;;;;;;17.42;8.95;;;;;;;;;;5077853;28;20027;-87
2021/07/05 02:45:26;;;;;;;17.13;8.93;;;;;;;;;;5077398;28;20478;-87
2021/07/05 02:47:53;;;;;;;12.32;7.85;;;;;;;;;;5077426;28;20135;-87
2021/07/05 02:50:20;;;;;;;20.67;8.65;;;;;;;;;;5077064;28;20056;-88
2021/07/05 02:52:47;;;;;;;17.27;7.70;;;;;;;;;;5077470;28;20031;-87
2021/07/05 02:58:17;;;;;;;15.65;7.60;;;;;;;;;;5081562;28;20115;-87
2021/07/05 03:00:45;;;;;;;15.68;8.02;;;;;;;;;;5081791;28;20017;-87
2021/07/05 03:03:12;;;;;;;24.60;8.32;;;;;;;;;;5081577;28;20047;-85
2021/07/05 03:05:38;;;;;;;29.50;9.35;;;;;;;;;;5081628;28;20020;-85
2021/07/05 03:08:04;;;;;;;17.42;9.20;;;;;;;;;;5081003;28;20442;-85
2021/07/05 03:10:35;;;;;;;19.55;8.45;;;;;;;;;;5081086;28;20066;-85
2021/07/05 03:13:02;;;;;;;15.93;8.98;;;;;;;;;;5081117;28;20065;-85
2021/07/05 03:15:28;;;;;;;17.55;8.85;;;;;;;;;;5081187;28;20026;-85
2021/07/05 03:17:54;;;;;;;14.27;7.70;;;;;;;;;;5081107;28;20060;-85
2021/07/05 03:20:22;;;;;;;17.40;7.93;;;;;;;;;;5081513;28;20024;-86
2021/07/05 03:22:49;;;;;;;14.55;7.55;;;;;;;;;;5081322;28;20051;-86
2021/07/05 03:25:16;;;;;;;12.43;6.90;;;;;;;;;;5081259;28;20024;-86
2021/07/05 03:27:43;;;;;;;13.77;7.57;;;;;;;;;;5081148;28;20036;-86
2021/07/05 03:30:09;;;;;;;14.27;7.00;;;;;;;;;;5081166;28;20028;-86
2021/07/05 03:32:36;;;;;;;12.20;8.07;;;;;;;;;;5080837;28;20024;-86
2021/07/05 03:35:04;;;;;;;14.93;7.15;;;;;;;;;;5080833;28;20059;-87
2021/07/05 03:37:30;;;;;;;17.00;7.72;;;;;;;;;;5081102;28;20032;-87
2021/07/05 03:39:56;;;;;;;14.68;7.22;;;;;;;;;;5081070;28;20021;-87
2021/07/05 03:42:22;;;;;;;13.40;7.18;;;;;;;;;;5080707;28;20021;-87
2021/07/05 03:44:48;;;;;;;15.52;6.88;;;;;;;;;;5080547;28;20024;-86
2021/07/05 03:47:14;;;;;;;13.88;7.57;;;;;;;;;;5080366;28;20489;-86
2021/07/05 03:49:40;;;;;;;14.90;7.80;;;;;;;;;;5080918;28;20310;-87
2021/07/05 03:52:06;;;;;;;11.25;6.95;;;;;;;;;;5079549;28;20024;-86
2021/07/05 03:54:32;;;;;;;12.82;6.95;;;;;;;;;;5080548;28;20017;-85
2021/07/05 03:56:59;;;;;;;11.05;7.35;;;;;;;;;;5080329;28;20067;-86
2021/07/05 03:59:25;;;;;;;13.20;7.07;;;;;;;;;;5080268;28;20407;-86
2021/07/05 04:01:51;;;;;;;17.05;7.43;;;;;;;;;;5080436;28;20415;-87
2021/07/05 04:04:18;;;;;;;15.82;7.85;;;;;;;;;;5080535;28;20020;-86
2021/07/05 04:06:44;;;;;;;21.33;7.65;;;;;;;;;;5079558;28;20052;-86
2021/07/05 04:09:10;;;;;;;13.23;7.25;;;;;;;;;;5079447;28;20040;-87
2021/07/05 04:11:37;;;;;;;15.32;7.68;;;;;;;;;;5080595;28;20016;-87
2021/07/05 04:14:03;;;;;;;12.30;7.53;;;;;;;;;;5080228;28;20081;-87
2021/07/05 04:16:29;;;;;;;10.98;7.78;;;;;;;;;;5079186;28;20028;-87
2021/07/05 04:18:55;;;;;;;14.93;7.68;;;;;;;;;;5079099;28;20036;-87
2021/07/05 04:21:25;;;;;;;14.63;8.30;;;;;;;;;;5079916;28;20024;-86
2021/07/05 04:23:51;;;;;;;15.52;8.20;;;;;;;;;;5080103;28;20365;-86
2021/07/05 04:29:20;;;;;;;11.63;8.80;;;;;;;;;;5088023;28;20112;-84
2021/07/05 04:31:47;;;;;;;17.20;8.32;;;;;;;;;;5100207;28;20032;-85
2021/07/05 04:34:13;;;;;;;15.65;9.43;;;;;;;;;;5100107;28;20078;-84
2021/07/05 04:36:39;;;;;;;17.35;7.93;;;;;;;;;;5099753;28;20111;-83
2021/07/05 04:39:06;;;;;;;18.63;8.10;;;;;;;;;;5099416;28;20020;-80
2021/07/05 04:41:33;;;;;;;15.43;8.05;;;;;;;;;;5099335;28;20024;-80
2021/07/05 04:43:59;;;;;;;15.95;9.10;;;;;;;;;;5099267;28;20103;-80
2021/07/05 04:46:26;;;;;;;14.15;7.38;;;;;;;;;;5098953;28;20020;-81
2021/07/05 04:48:55;;;;;;;13.48;7.47;;;;;;;;;;5098207;28;20051;-80
2021/07/05 04:51:23;;;;;;;14.52;7.68;;;;;;;;;;5099347;28;20066;-80
2021/07/05 04:53:50;;;;;;;17.58;7.47;;;;;;;;;;5098842;28;20065;-80
2021/07/05 04:56:16;;;;;;;11.98;7.78;;;;;;;;;;5097815;28;20024;-80
2021/07/05 04:58:42;;;;;;;14.43;7.10;;;;;;;;;;5097893;28;20024;-80
2021/07/05 05:01:08;;;;;;;14.13;8.80;;;;;;;;;;5098889;28;20111;-80
2021/07/05 05:03:34;;;;;;;12.23;8.32;;;;;;;;;;5098831;28;20103;-79
2021/07/05 05:06:02;;;;;;;18.65;11.23;;;;;;;;;;5099132;28;20023;-80
2021/07/05 05:08:28;;;;;;;12.60;7.35;;;;;;;;;;5098682;28;20073;-79
2021/07/05 05:10:54;;;;;;;18.17;8.70;;;;;;;;;;5098649;28;20201;-79
2021/07/05 05:13:20;;;;;;;13.10;8.65;;;;;;;;;;5098596;28;20492;-80
2021/07/05 05:15:46;;;;;;;15.55;9.02;;;;;;;;;;5098534;28;20405;-79
2021/07/05 05:18:12;;;;;;;19.83;8.20;;;;;;;;;;5094347;28;20032;-79
2021/07/05 05:20:38;;;;;;;17.60;10.85;;;;;;;;;;5087662;28;20107;-79
2021/07/05 05:23:04;;;;;;;19.42;8.63;;;;;;;;;;5087451;28;20020;-80
2021/07/05 05:25:30;;;;;;;19.35;8.23;;;;;;;;;;5085015;28;20025;-80
2021/07/05 05:27:56;;;;;;;14.48;9.05;;;;;;;;;;5090967;28;20031;-80
2021/07/05 05:30:23;;;;;;;16.25;8.75;;;;;;;;;;5094452;28;20028;-80
2021/07/05 05:32:50;;;;;;;10.57;8.18;;;;;;;;;;5098131;28;20060;-80
2021/07/05 05:35:20;;;;;;;16.15;9.07;;;;;;;;;;5098233;28;20027;-80
2021/07/05 05:45:34;;;;;;;20.50;8.98;;;;;;;;;;5420435;22;20400;-79
2021/07/05 05:48:00;;;;;;;17.48;7.05;;;;;;;;;;5037276;28;20110;-80
2021/07/05 05:50:26;;;;;;;14.82;7.32;;;;;;;;;;5037573;28;20029;-79
2021/07/05 05:52:52;;;;;;;13.35;7.38;;;;;;;;;;5029088;28;20029;-79
2021/07/05 05:55:18;;;;;;;14.65;7.40;;;;;;;;;;5033850;28;20013;-80
2021/07/05 05:57:44;;;;;;;8.52;6.35;;;;;;;;;;5031204;28;20025;-79
2021/07/05 06:00:16;;;;;;;13.13;7.10;;;;;;;;;;5036946;28;20037;-79
2021/07/05 06:02:42;;;;;;;13.48;7.40;;;;;;;;;;5037553;28;20048;-80
2021/07/05 06:05:09;;;;;;;24.38;18.73;;;;;;;;;;5037556;28;20411;-79
2021/07/05 06:07:35;;;;;;;14.68;9.77;;;;;;;;;;5037468;28;20071;-79
2021/07/05 06:10:01;;;;;;;19.73;12.88;;;;;;;;;;5037445;28;20411;-80
2021/07/05 06:12:27;;;;;;;16.00;11.38;;;;;;;;;;5037389;28;20029;-80
2021/07/05 06:14:53;;;;;;;13.65;7.95;;;;;;;;;;5036025;28;20049;-80
2021/07/05 06:17:19;;;;;;;16.38;12.88;;;;;;;;;;5036137;28;20454;-79
2021/07/05 06:19:45;;;;;;;14.13;10.35;;;;;;;;;;5037276;28;20455;-79
2021/07/05 06:22:18;;;;;;;39.05;30.77;;;;;;;;;;5037393;28;20084;-79
2021/07/05 06:24:47;;;;;;;15.43;7.85;;;;;;;;;;5037468;28;20022;-79
2021/07/05 06:27:14;;;;;;;8.90;6.97;;;;;;;;;;5037308;28;20041;-79
2021/07/05 06:29:40;;;;;;;12.93;7.60;;;;;;;;;;5036841;28;20021;-79
2021/07/05 06:32:06;;;;;;;14.82;8.18;;;;;;;;;;5037165;28;20017;-79
2021/07/05 06:34:32;;;;;;;13.15;7.65;;;;;;;;;;5037071;28;20029;-79
2021/07/05 06:36:59;;;;;;;12.38;6.80;;;;;;;;;;5035964;28;20430;-79
2021/07/05 06:39:25;;;;;;;11.32;7.03;;;;;;;;;;5035510;28;20034;-79
2021/07/05 06:41:51;;;;;;;12.50;7.32;;;;;;;;;;5035617;28;20029;-79
2021/07/05 06:44:18;;;;;;;8.15;6.57;;;;;;;;;;5036292;28;20053;-79
2021/07/05 06:46:44;;;;;;;12.07;6.82;;;;;;;;;;5016775;28;20057;-80
2021/07/05 06:49:16;;;;;;;19.52;7.50;;;;;;;;;;5015956;28;20044;-80
2021/07/05 06:51:44;;;;;;;10.13;5.93;;;;;;;;;;5016957;28;20348;-80
2021/07/05 06:54:11;;;;;;;13.98;8.23;;;;;;;;;;5017238;28;20025;-81
2021/07/05 06:56:38;;;;;;;11.45;6.90;;;;;;;;;;5031740;28;20069;-81
2021/07/05 06:59:04;;;;;;;42.38;8.32;;;;;;;;;;5036596;28;20025;-80
2021/07/05 07:01:30;;;;;;;42.00;10.00;;;;;;;;;;5036834;28;20021;-80
2021/07/05 07:03:56;;;;;;;10.30;6.63;;;;;;;;;;5036722;28;20022;-80
2021/07/05 07:06:22;;;;;;;15.05;7.03;;;;;;;;;;5037127;28;20025;-80
2021/07/05 07:08:49;;;;;;;11.80;7.32;;;;;;;;;;5035715;28;20029;-80
2021/07/05 07:11:15;;;;;;;10.15;6.50;;;;;;;;;;5036750;28;20026;-80
2021/07/05 07:13:41;;;;;;;8.07;7.28;;;;;;;;;;5036703;28;20116;-80
2021/07/05 07:16:07;;;;;;;7.43;6.38;;;;;;;;;;5036478;28;20037;-80
2021/07/05 07:18:46;;;;;;;9.70;6.05;;;;;;;;;;5036507;28;20036;-80
2021/07/05 07:21:13;;;;;;;12.32;6.47;;;;;;;;;;5036675;28;20025;-80
2021/07/05 07:23:39;;;;;;;11.48;5.78;;;;;;;;;;5036566;28;20021;-80
2021/07/05 07:26:05;;;;;;;10.38;5.95;;;;;;;;;;5036696;28;20060;-80
2021/07/05 07:28:31;;;;;;;18.08;16.17;;;;;;;;;;5036495;28;20442;-81
2021/07/05 07:30:57;;;;;;;11.85;7.15;;;;;;;;;;5036482;28;20030;-80
2021/07/05 07:33:23;;;;;;;22.58;18.17;;;;;;;;;;5036706;28;20034;-80
2021/07/05 07:35:51;;;;;;;27.25;12.30;;;;;;;;;;5034563;28;20075;-80
2021/07/05 07:38:18;;;;;;;125.63;13.13;;;;;;;;;;5036545;28;20133;-78
2021/07/05 07:40:45;;;;;;;11.25;5.38;;;;;;;;;;5037216;28;20060;-80
2021/07/05 07:43:11;;;;;;;8.57;6.30;;;;;;;;;;5040019;28;20108;-80
2021/07/05 07:45:37;;;;;;;36.83;27.05;;;;;;;;;;5039515;28;20447;-81
2021/07/05 07:48:04;;;;;;;10.77;6.38;;;;;;;;;;5039994;28;20431;-81
2021/07/05 07:50:30;;;;;;;21.77;14.48;;;;;;;;;;5039986;28;20120;-80
2021/07/05 07:52:57;;;;;;;8.57;5.50;;;;;;;;;;5040176;28;20025;-80
2021/07/05 07:55:23;;;;;;;11.68;5.90;;;;;;;;;;5040226;28;20068;-79
2021/07/05 07:57:49;;;;;;;7.68;5.63;;;;;;;;;;5039074;28;20031;-81
2021/07/05 08:00:16;;;;;;;9.38;5.82;;;;;;;;;;5039580;28;20029;-80
2021/07/05 08:02:43;;;;;;;9.43;5.70;;;;;;;;;;5039590;28;20468;-79
2021/07/05 08:05:09;;;;;;;7.35;5.88;;;;;;;;;;5039865;28;20029;-79
2021/07/05 08:07:40;;;;;;;7.70;5.60;;;;;;;;;;5039349;28;20056;-79
2021/07/05 08:10:06;;;;;;;11.20;5.50;;;;;;;;;;5039723;28;20028;-79
2021/07/05 08:12:32;;;;;;;10.38;5.93;;;;;;;;;;5039539;28;20021;-79
2021/07/05 08:14:59;;;;;;;15.23;5.85;;;;;;;;;;5039153;28;20032;-79
2021/07/05 08:17:25;;;;;;;15.73;5.95;;;;;;;;;;5039301;28;20091;-79
2021/07/05 08:19:52;;;;;;;7.85;5.40;;;;;;;;;;5039650;28;20044;-79
2021/07/05 08:22:19;;;;;;;11.15;5.70;;;;;;;;;;5039661;28;20398;-79
2021/07/05 08:24:45;;;;;;;7.53;5.40;;;;;;;;;;5038420;28;20315;-79
2021/07/05 08:27:11;;;;;;;9.73;5.50;;;;;;;;;;5036582;28;20030;-79
2021/07/05 08:29:37;;;;;;;8.23;5.15;;;;;;;;;;5039126;28;20423;-80
2021/07/05 08:32:03;;;;;;;10.02;4.88;;;;;;;;;;5038920;28;20434;-80
2021/07/05 08:34:30;;;;;;;6.80;5.55;;;;;;;;;;5039327;28;20025;-80
2021/07/05 08:36:56;;;;;;;9.65;5.65;;;;;;;;;;5039177;28;20439;-79
2021/07/05 08:39:22;;;;;;;7.25;5.70;;;;;;;;;;5039194;28;20033;-80
2021/07/05 08:41:48;;;;;;;5.55;5.00;;;;;;;;;;5039073;28;20021;-81
2021/07/05 08:44:14;;;;;;;7.70;5.03;;;;;;;;;;5039223;28;20029;-81
2021/07/05 08:46:42;;;;;;;7.57;5.32;;;;;;;;;;5028891;28;20046;-79
2021/07/05 08:49:08;;;;;;;5.35;4.85;;;;;;;;;;5019364;28;20042;-79
2021/07/05 08:51:34;;;;;;;6.97;5.10;;;;;;;;;;5018563;28;20033;-79
2021/07/05 08:54:00;;;;;;;42.95;7.60;;;;;;;;;;5018949;28;20029;-80
2021/07/05 08:56:26;;;;;;;8.35;5.45;;;;;;;;;;5018999;28;20376;-80
2021/07/05 08:58:52;;;;;;;10.35;5.53;;;;;;;;;;5018861;28;20114;-80
2021/07/05 09:01:19;;;;;;;6.82;5.20;;;;;;;;;;5018766;28;20033;-80
2021/07/05 18:41:29;;;;;;;13.50;6.78;;;;;;;;;;5115339;27;20373;-82
2021/07/05 18:43:55;;;;;;;14.73;6.28;;;;;;;;;;5115025;28;20058;-82
2021/07/05 18:46:22;;;;;;;14.57;5.93;;;;;;;;;;5113539;28;20028;-83
2021/07/05 18:48:48;;;;;;;11.77;6.85;;;;;;;;;;5114755;28;20020;-82
2021/07/05 18:51:15;;;;;;;8.85;5.82;;;;;;;;;;5114836;28;20031;-81
2021/07/05 18:53:44;;;;;;;12.82;6.03;;;;;;;;;;5115223;28;20042;-81
2021/07/05 18:56:10;;;;;;;19.35;6.82;;;;;;;;;;5113849;28;20061;-82
2021/07/05 18:58:36;;;;;;;15.93;7.22;;;;;;;;;;5114881;28;20020;-81
2021/07/05 19:01:02;;;;;;;10.73;6.28;;;;;;;;;;5114642;28;20020;-82
2021/07/05 19:03:30;;;;;;;9.38;6.15;;;;;;;;;;5113962;28;20329;-82
2021/07/05 19:05:56;;;;;;;13.07;6.68;;;;;;;;;;5114687;28;20466;-82
2021/07/05 19:08:23;;;;;;;16.00;6.43;;;;;;;;;;5114167;28;20066;-82
2021/07/05 19:10:49;;;;;;;14.77;6.78;;;;;;;;;;5114853;28;20039;-82
2021/07/05 19:13:15;;;;;;;6.88;5.72;;;;;;;;;;5114769;28;20024;-82
2021/07/05 19:15:41;;;;;;;10.85;5.75;;;;;;;;;;5114394;28;20054;-81
2021/07/05 19:18:07;;;;;;;11.38;6.40;;;;;;;;;;5113353;28;20027;-83
2021/07/05 19:20:33;;;;;;;9.55;6.57;;;;;;;;;;5114313;28;20499;-82
2021/07/05 19:23:00;;;;;;;12.30;6.07;;;;;;;;;;5114234;28;20024;-81
2021/07/05 19:25:26;;;;;;;10.52;6.88;;;;;;;;;;5114318;28;20020;-82
2021/07/05 19:27:52;;;;;;;13.52;6.50;;;;;;;;;;5114215;28;20362;-82
2021/07/05 19:30:21;;;;;;;10.98;6.63;;;;;;;;;;5114434;28;20082;-82
2021/07/05 19:32:47;;;;;;;10.40;6.78;;;;;;;;;;5114310;28;20032;-82
2021/07/05 19:35:13;;;;;;;12.63;6.47;;;;;;;;;;5114181;28;20023;-82
2021/07/05 19:37:39;;;;;;;15.02;6.03;;;;;;;;;;5114087;28;20023;-82
2021/07/05 19:40:06;;;;;;;8.43;6.55;;;;;;;;;;5112703;28;20067;-81
2021/07/05 19:42:32;;;;;;;12.27;6.45;;;;;;;;;;5113960;28;20024;-81
2021/07/05 19:44:58;;;;;;;13.40;7.18;;;;;;;;;;5114014;28;20077;-81
2021/07/05 19:47:24;;;;;;;12.43;7.15;;;;;;;;;;5112920;28;20024;-81
2021/07/05 19:49:50;;;;;;;11.45;7.18;;;;;;;;;;5113817;28;20020;-81
2021/07/05 19:52:16;;;;;;;12.70;6.90;;;;;;;;;;5103111;28;20024;-81
2021/07/05 19:54:43;;;;;;;14.50;7.22;;;;;;;;;;5099369;28;20020;-82
2021/07/05 19:57:09;;;;;;;12.38;7.00;;;;;;;;;;5100026;28;20417;-81
2021/07/05 19:59:35;;;;;;;12.40;8.13;;;;;;;;;;5100069;28;20035;-81
2021/07/05 20:02:01;;;;;;;19.10;7.93;;;;;;;;;;5099690;28;20023;-81
2021/07/05 20:04:27;;;;;;;13.48;7.88;;;;;;;;;;5100050;28;20020;-81
2021/07/05 20:06:54;;;;;;;16.00;7.18;;;;;;;;;;5099962;28;20020;-81
2021/07/05 20:09:20;;;;;;;12.63;7.22;;;;;;;;;;5099361;28;20024;-81
2021/07/05 20:11:46;;;;;;;16.38;7.60;;;;;;;;;;5098776;28;20421;-82
2021/07/05 20:14:12;;;;;;;13.52;8.10;;;;;;;;;;5099675;28;20020;-81
2021/07/05 20:16:38;;;;;;;16.30;7.10;;;;;;;;;;5099737;28;20066;-81
2021/07/05 20:19:04;;;;;;;21.75;7.40;;;;;;;;;;5099213;28;20013;-82
2021/07/05 20:21:30;;;;;;;16.27;7.35;;;;;;;;;;5099526;28;20432;-82
2021/07/05 20:23:56;;;;;;;17.35;7.13;;;;;;;;;;5099281;28;20050;-82
2021/07/05 20:26:22;;;;;;;10.98;6.80;;;;;;;;;;5099844;28;20024;-82
2021/07/05 20:28:49;;;;;;;17.20;7.22;;;;;;;;;;5098348;28;20032;-82
2021/07/05 20:31:15;;;;;;;15.65;6.97;;;;;;;;;;5099545;28;20028;-82
2021/07/05 20:33:44;;;;;;;11.93;7.05;;;;;;;;;;5099576;28;20040;-82
2021/07/05 20:36:10;;;;;;;13.43;7.90;;;;;;;;;;5099429;28;20032;-82
2021/07/05 20:38:36;;;;;;;15.57;7.13;;;;;;;;;;5099491;28;20023;-82
2021/07/05 20:41:02;;;;;;;16.58;7.88;;;;;;;;;;5098965;28;20139;-83
2021/07/05 20:43:28;;;;;;;16.48;7.18;;;;;;;;;;5098150;28;20437;-82
2021/07/05 20:45:56;;;;;;;13.95;9.60;;;;;;;;;;5099205;28;20028;-83
2021/07/05 20:48:23;;;;;;;14.40;7.95;;;;;;;;;;5099057;28;20029;-82
2021/07/05 20:50:50;;;;;;;19.02;7.40;;;;;;;;;;5099094;28;20032;-82
2021/07/05 20:53:16;;;;;;;13.35;7.18;;;;;;;;;;5098819;28;20154;-83
2021/07/05 20:55:42;;;;;;;11.82;7.80;;;;;;;;;;5097631;28;20032;-82
2021/07/05 20:58:08;;;;;;;13.52;7.43;;;;;;;;;;5099056;28;20036;-83
2021/07/05 21:00:34;;;;;;;12.23;8.43;;;;;;;;;;5097693;28;20032;-82
2021/07/05 21:03:01;;;;;;;14.10;7.72;;;;;;;;;;5096782;28;20016;-82
2021/07/05 21:05:27;;;;;;;12.80;8.27;;;;;;;;;;5098736;28;20027;-82
2021/07/05 21:07:53;;;;;;;15.20;7.18;;;;;;;;;;5098675;28;20020;-82
2021/07/05 21:10:19;;;;;;;15.73;8.30;;;;;;;;;;5098573;28;20172;-82
2021/07/05 21:12:45;;;;;;;12.70;8.25;;;;;;;;;;5097663;28;20026;-82
2021/07/05 21:15:11;;;;;;;13.57;7.80;;;;;;;;;;5098649;28;20024;-82
2021/07/05 21:17:37;;;;;;;15.50;8.50;;;;;;;;;;5098607;28;20032;-82
2021/07/05 21:20:04;;;;;;;15.07;8.52;;;;;;;;;;5098493;28;20035;-83
2021/07/05 21:22:30;;;;;;;12.93;8.70;;;;;;;;;;5098552;28;20020;-82
2021/07/05 21:24:56;;;;;;;12.98;7.30;;;;;;;;;;5098461;28;20082;-82
2021/07/05 21:27:22;;;;;;;15.07;7.82;;;;;;;;;;5098388;28;20517;-83
2021/07/05 21:29:48;;;;;;;11.68;8.52;;;;;;;;;;5097328;28;20024;-83
2021/07/05 21:32:14;;;;;;;13.35;7.50;;;;;;;;;;5097298;28;20020;-82
2021/07/05 21:34:40;;;;;;;16.35;8.68;;;;;;;;;;5097255;28;20036;-83
2021/07/05 21:37:06;;;;;;;13.60;8.13;;;;;;;;;;5098408;28;20020;-83
2021/07/05 21:39:33;;;;;;;14.20;8.18;;;;;;;;;;5097742;28;20050;-82
2021/07/05 21:41:59;;;;;;;11.65;8.55;;;;;;;;;;5097105;28;20024;-82
2021/07/05 21:44:26;;;;;;;15.73;8.57;;;;;;;;;;5098064;28;20028;-82
2021/07/05 21:46:52;;;;;;;11.20;8.15;;;;;;;;;;5097915;28;20066;-83
2021/07/05 21:49:18;;;;;;;14.07;7.40;;;;;;;;;;5097917;28;20020;-82
2021/07/05 21:51:44;;;;;;;17.15;8.18;;;;;;;;;;5097982;28;20016;-83
2021/07/05 21:54:10;;;;;;;16.75;8.95;;;;;;;;;;5097805;28;20016;-83
2021/07/05 21:56:36;;;;;;;17.80;9.30;;;;;;;;;;5097785;28;20020;-83
2021/07/05 21:59:02;;;;;;;13.35;7.85;;;;;;;;;;5097955;28;20024;-83
2021/07/05 22:01:28;;;;;;;13.35;7.93;;;;;;;;;;5096708;28;20024;-82
2021/07/05 22:03:54;;;;;;;11.68;7.80;;;;;;;;;;5097793;28;20429;-82
2021/07/05 22:06:20;;;;;;;15.65;8.07;;;;;;;;;;5097811;28;20295;-83
2021/07/05 22:08:46;;;;;;;11.93;7.95;;;;;;;;;;5097586;28;20016;-85
2021/07/05 22:11:12;;;;;;;10.35;7.90;;;;;;;;;;5098168;28;20060;-82
2021/07/05 22:13:38;;;;;;;22.63;8.48;;;;;;;;;;5097682;28;20031;-82
2021/07/05 22:16:05;;;;;;;12.00;8.30;;;;;;;;;;5097263;28;20063;-83
2021/07/05 22:18:31;;;;;;;13.02;8.23;;;;;;;;;;5097688;28;20024;-85
2021/07/05 22:20:57;;;;;;;17.80;8.75;;;;;;;;;;5098003;28;20066;-87
2021/07/05 22:23:23;;;;;;;14.05;9.23;;;;;;;;;;5097022;28;20059;-88
2021/07/05 22:25:49;;;;;;;20.45;8.60;;;;;;;;;;5097939;28;20325;-88
2021/07/05 22:28:15;;;;;;;17.88;8.18;;;;;;;;;;5097019;28;20451;-87
2021/07/05 22:30:42;;;;;;;12.35;7.53;;;;;;;;;;5097828;28;20032;-87
2021/07/05 22:33:08;;;;;;;15.90;8.27;;;;;;;;;;5098066;28;20031;-88
2021/07/05 22:35:34;;;;;;;15.90;7.80;;;;;;;;;;5097727;28;20020;-87
2021/07/05 22:38:00;;;;;;;13.70;8.55;;;;;;;;;;5097757;28;20028;-87
2021/07/05 22:40:27;;;;;;;14.85;8.10;;;;;;;;;;5096550;28;20044;-88
2021/07/05 22:42:53;;;;;;;12.13;7.93;;;;;;;;;;5097755;28;20020;-87
2021/07/05 22:45:20;;;;;;;20.38;7.88;;;;;;;;;;5097820;28;20065;-88
2021/07/05 22:47:47;;;;;;;12.43;7.85;;;;;;;;;;5097746;28;20020;-88
2021/07/05 22:50:14;;;;;;;12.10;8.35;;;;;;;;;;5097771;28;20024;-90
2021/07/05 22:52:40;;;;;;;10.38;7.88;;;;;;;;;;5097661;28;20099;-89
2021/07/05 22:55:06;;;;;;;13.45;8.13;;;;;;;;;;5097506;28;20032;-89
2021/07/05 22:57:51;;;;;;;12.65;8.45;;;;;;;;;;5097384;28;20118;-88
2021/07/05 23:00:23;;;;;;;12.60;7.93;;;;;;;;;;5096488;28;20020;-88
2021/07/05 23:02:51;;;;;;;10.52;7.90;;;;;;;;;;5097654;28;20081;-89
2021/07/05 23:05:17;;;;;;;13.23;7.72;;;;;;;;;;5097455;28;20027;-88
2021/07/05 23:07:44;;;;;;;13.23;8.38;;;;;;;;;;5097516;28;20020;-87
2021/07/05 23:10:21;;;;;;;12.43;7.93;;;;;;;;;;5097777;28;20036;-88
2021/07/05 23:12:47;;;;;;;15.13;8.52;;;;;;;;;;5096717;28;20307;-88
2021/07/05 23:15:14;;;;;;;13.77;7.75;;;;;;;;;;5096333;28;20028;-90
2021/07/05 23:17:40;;;;;;;14.70;8.75;;;;;;;;;;5097528;28;20032;-88
2021/07/05 23:20:11;;;;;;;16.35;9.07;;;;;;;;;;5097253;28;20031;-89
2021/07/05 23:22:37;;;;;;;14.10;8.63;;;;;;;;;;5097592;28;20024;-89
2021/07/05 23:25:04;;;;;;;13.02;8.60;;;;;;;;;;5097095;28;20035;-88
2021/07/05 23:27:30;;;;;;;15.00;8.55;;;;;;;;;;5099918;28;20043;-87
2021/07/05 23:29:56;;;;;;;13.30;9.15;;;;;;;;;;5101244;28;20089;-88
2021/07/05 23:32:22;;;;;;;14.52;9.02;;;;;;;;;;5101025;28;20102;-88
2021/07/05 23:34:48;;;;;;;15.68;9.57;;;;;;;;;;5101020;28;20020;-87
2021/07/05 23:37:14;;;;;;;12.07;9.23;;;;;;;;;;5100978;28;20024;-87
2021/07/05 23:39:40;;;;;;;14.95;9.38;;;;;;;;;;5099772;28;20178;-87
2021/07/05 23:42:06;;;;;;;20.77;9.50;;;;;;;;;;5099922;28;20024;-87
2021/07/05 23:44:34;;;;;;;14.43;9.07;;;;;;;;;;5100890;28;20020;-87
2021/07/05 23:47:00;;;;;;;17.92;8.68;;;;;;;;;;5100805;28;20062;-86
2021/07/05 23:49:26;;;;;;;16.63;8.70;;;;;;;;;;5100801;28;20020;-88
2021/07/05 23:51:53;;;;;;;28.60;9.25;;;;;;;;;;5100712;28;20020;-87
2021/07/05 23:54:19;;;;;;;19.13;9.02;;;;;;;;;;5100806;28;20099;-86
2021/07/05 23:56:45;;;;;;;15.13;9.35;;;;;;;;;;5099606;28;20038;-87
2021/07/05 23:59:11;;;;;;;18.67;8.95;;;;;;;;;;5099752;28;20020;-87
